Aérodrome :
LOGIN :

S'inscrire | Disclaimer

   EN    FR    IT 

 










Légende :    VFR   VFR Marginal   IFR   IFR Intensif   IFR Très Intensif
Visi : 
Plafond : 
>= 8 km
>= 3000ft
5 à 8 km
1000 à 3000 ft
1500m à 5 km
500 à 1000 ft
800 à 1500m
200 à 500 ft
< 800m
< 200 ft
Symboles :   Orages  Brouillard  Fortes neiges  Fortes précipitations  Vent > 20 kt
SIGMETs :   Divers  Orages  Givrage  Turbulence  Onde Orograph.  Cendres Volcan.







- Altitude de l'aérodrome : 1106 ft
- Voir les cartes d'approche


LFSO - Nancy / Ochey

DERNIER METAR :
  • 230830Z AUTO 21008KT 9999 -RA FEW012 BKN034 OVC040 14/12 Q1018 NOSIG

METARs EXPIRÉS :
  • 230800Z AUTO 22009KT 9999 SCT016 BKN038 OVC045 14/12 Q1017
  • 230730Z AUTO 23006KT 9999 SCT015 SCT046 14/12 Q1017 TEMPO BKN013
  • 230700Z AUTO 22008KT 9999 FEW012 BKN035 13/12 Q1017 BECMG BKN013
  • 230630Z AUTO 23010KT 9999 BKN011 OVC034 13/12 Q1017 TEMPO BKN008 OVC015
  • 230600Z AUTO 24009KT 9999 BKN012 OVC024 13/12 Q1016 BECMG BKN008 OVC015

TAF AMD TAF LFSO
Valide du 23 à 05h jusqu'au 24 à 03h UTC


230500Z 2305/2403 25010KT 9999 BKN008 OVC015
PROB40
TEMPO 2306/2313 -SHRA
BECMG 2308/2309 BKN013
BECMG 2309/2311 BKN015
BECMG 2313/2314 BKN025
BECMG 2318/2320 16005KT
Pas de NOTAMs connus pour ce terrain.



MET'MAP, la Météo Aéronautique d'un coup d'oeil ! - Copyright ORBIFLY Décembre 2007 - Disclaimer

ORBIFLY MET'MAP TEAM :

Programmation & Développement : Alexandra Zaïnal
Conception & Développement : Baudouin d'Aumeries
Co-Programmation & Développement : Marc-Olivier Méhu
Soutien technique & logistique : Manuel Goepfert

Contact : metmap@orbifly.com




SOURCES & CREDITS :

   NOAA